Cherokee, Texas
Current Conditions -  °F | °C
As of 9:15 AM on Monday 24 Nov 2014 (Local Time) from KAQO Reporting Station
Clear Clear  
Wind Chill: 52°   Ceiling: Unl
Heat Index: 52°   Visibility: 10mi
Dew Point: 34°   Wind: 7mph
Humidity: 50%   Direction: 330°NNW
Pressure: 30.15"   Gusts: NA
Location:  30.98°N, 98.71°W
Report Text: KAQO 241515Z AUTO 33006KT 10SM CLR 11/01 A3015 RMK AO2
Loading
Personal Weather Stations






























Interactive Weather Map New forecast layout! Learn more

10-Day Weather Forecast

Advertisements
Track Severe Weather on mobile